createdAt,value
2022-09-07T00:00:39.360Z,3.20
2022-09-07T00:03:06.550Z,3.10
2022-09-07T00:05:33.719Z,3.10
2022-09-07T00:08:00.548Z,3.38
2022-09-07T00:10:27.621Z,3.60
2022-09-07T00:12:54.317Z,3.30
2022-09-07T00:15:20.978Z,3.30
2022-09-07T00:17:47.645Z,3.42
2022-09-07T00:20:15.162Z,3.25
2022-09-07T00:22:42.070Z,3.13
2022-09-07T00:25:09.641Z,3.40
2022-09-07T00:27:36.309Z,3.20
2022-09-07T00:30:03.350Z,3.63
2022-09-07T00:32:30.077Z,3.20
2022-09-07T00:34:56.749Z,3.75
2022-09-07T00:37:23.625Z,3.13
2022-09-07T00:39:50.608Z,3.17
2022-09-07T00:42:20.772Z,3.13
2022-09-07T00:44:56.673Z,3.67
2022-09-07T00:47:50.340Z,2.80
2022-09-07T00:50:24.153Z,3.28
2022-09-07T00:52:56.786Z,3.40
2022-09-07T00:55:25.033Z,3.58
2022-09-07T00:57:55.130Z,3.10
2022-09-07T01:00:22.106Z,3.60
2022-09-07T01:02:52.410Z,3.28
2022-09-07T01:05:31.855Z,3.28
2022-09-07T01:07:59.698Z,3.60
2022-09-07T01:10:30.742Z,3.53
2022-09-07T01:12:58.915Z,3.22
2022-09-07T01:15:50.719Z,3.50
2022-09-07T01:18:35.531Z,3.42
2022-09-07T01:21:07.950Z,3.67
2022-09-07T01:24:00.400Z,5.30
2022-09-07T01:26:51.781Z,4.45
2022-09-07T01:29:50.146Z,3.70
2022-09-07T01:32:24.018Z,3.95
2022-09-07T01:34:53.526Z,3.60
2022-09-07T01:37:28.816Z,4.00
2022-09-07T01:40:09.942Z,3.70
2022-09-07T01:43:02.516Z,3.60
2022-09-07T01:45:34.502Z,3.47
2022-09-07T01:48:06.238Z,4.10
2022-09-07T01:50:44.853Z,3.55
2022-09-07T01:53:17.693Z,3.72
2022-09-07T01:55:50.656Z,4.38
2022-09-07T01:58:42.510Z,4.72
2022-09-07T02:01:14.199Z,3.90
2022-09-07T02:03:43.674Z,3.22
2022-09-07T02:06:26.734Z,3.75
2022-09-07T02:09:03.404Z,3.80
2022-09-07T02:11:39.716Z,3.95
2022-09-07T02:14:26.591Z,3.50
2022-09-07T02:16:59.386Z,3.80
2022-09-07T02:19:33.794Z,3.90
2022-09-07T02:22:06.372Z,3.80
2022-09-07T02:24:37.827Z,3.50
2022-09-07T02:27:13.073Z,3.50
2022-09-07T02:29:39.875Z,3.45
2022-09-07T02:32:06.657Z,4.40
2022-09-07T02:34:33.703Z,3.90
2022-09-07T02:37:02.221Z,3.45
2022-09-07T02:39:29.339Z,3.53
2022-09-07T02:41:56.096Z,3.50
2022-09-07T02:44:28.549Z,3.78
2022-09-07T02:47:05.321Z,3.75
2022-09-07T02:49:51.422Z,3.67
2022-09-07T02:52:32.929Z,3.78
2022-09-07T02:55:19.304Z,3.40
2022-09-07T02:58:13.539Z,3.20
2022-09-07T03:00:50.398Z,3.47
2022-09-07T03:03:30.470Z,3.65
2022-09-07T03:06:04.364Z,3.63
2022-09-07T03:08:36.744Z,4.03
2022-09-07T03:11:05.349Z,3.33
2022-09-07T03:13:32.865Z,3.90
2022-09-07T03:15:59.733Z,4.30
2022-09-07T03:18:28.200Z,3.97
2022-09-07T03:20:55.645Z,3.92
2022-09-07T03:23:22.491Z,3.58
2022-09-07T03:25:49.277Z,3.97
2022-09-07T03:28:16.383Z,3.47
2022-09-07T03:30:44.475Z,3.75
2022-09-07T03:33:11.692Z,3.40
2022-09-07T03:35:38.381Z,3.33
2022-09-07T03:38:05.111Z,3.00
2022-09-07T03:40:31.846Z,3.40
2022-09-07T03:42:58.549Z,2.92
2022-09-07T03:45:25.206Z,3.58
2022-09-07T03:47:51.924Z,3.70
2022-09-07T03:50:18.664Z,3.40
2022-09-07T03:52:45.322Z,3.50
2022-09-07T03:55:11.994Z,3.45
2022-09-07T03:57:40.400Z,3.38
2022-09-07T04:00:08.186Z,3.75
2022-09-07T04:02:34.970Z,3.20
2022-09-07T04:05:01.724Z,3.60
2022-09-07T04:07:28.407Z,3.65
2022-09-07T04:09:55.058Z,3.38
2022-09-07T04:12:21.708Z,3.55
2022-09-07T04:14:48.361Z,3.50
2022-09-07T04:17:15.145Z,3.35
2022-09-07T04:19:41.889Z,3.60
2022-09-07T04:22:08.562Z,3.28
2022-09-07T04:24:35.258Z,3.25
2022-09-07T04:27:02.447Z,3.22
2022-09-07T04:29:29.186Z,3.80
2022-09-07T04:31:55.847Z,3.50
2022-09-07T04:34:22.509Z,3.80
2022-09-07T04:36:49.169Z,3.60
2022-09-07T04:39:15.848Z,3.90
2022-09-07T04:41:42.987Z,4.07
2022-09-07T04:44:13.627Z,3.80
2022-09-07T04:49:11.251Z,3.88
2022-09-07T04:51:39.745Z,3.70
2022-09-07T04:54:07.138Z,3.42
2022-09-07T04:56:34.102Z,4.30
2022-09-07T04:59:04.208Z,4.30
2022-09-07T05:01:31.405Z,3.78
2022-09-07T05:04:01.353Z,3.80
2022-09-07T05:06:28.125Z,4.22
2022-09-07T05:08:55.261Z,3.97
2022-09-07T05:11:28.321Z,3.83
2022-09-07T05:14:00.770Z,3.50
2022-09-07T05:16:28.545Z,3.92
2022-09-07T05:18:58.393Z,3.88
2022-09-07T05:21:27.852Z,4.30
2022-09-07T05:23:56.394Z,4.10
2022-09-07T05:26:25.626Z,4.47
2022-09-07T05:28:52.684Z,9.57
2022-09-07T05:31:22.757Z,4.90
2022-09-07T05:36:38.497Z,4.35
2022-09-07T05:39:06.586Z,3.70
2022-09-07T05:41:33.237Z,4.30
2022-09-07T05:46:46.558Z,4.25
2022-09-07T05:49:13.182Z,4.10
2022-09-07T05:51:39.957Z,4.15
2022-09-07T05:54:06.835Z,4.03
2022-09-07T05:56:36.207Z,4.30
2022-09-07T05:59:03.845Z,4.50
2022-09-07T06:01:31.573Z,4.70
2022-09-07T06:03:58.341Z,4.50
2022-09-07T06:06:25.085Z,4.72
2022-09-07T06:08:53.931Z,4.60
2022-09-07T06:11:23.301Z,5.05
2022-09-07T06:13:50.596Z,4.53
2022-09-07T06:16:18.758Z,4.50
2022-09-07T06:18:48.305Z,4.72
2022-09-07T06:21:17.999Z,4.30
2022-09-07T06:23:45.930Z,4.00
2022-09-07T06:26:13.694Z,3.92
2022-09-07T06:28:42.497Z,4.00
2022-09-07T06:31:16.801Z,4.00
2022-09-07T06:33:44.861Z,4.93
2022-09-07T06:36:23.141Z,4.22
2022-09-07T06:38:51.238Z,4.60
2022-09-07T06:44:05.843Z,4.15
2022-09-07T06:49:19.240Z,4.18
2022-09-07T06:51:45.928Z,3.47
2022-09-07T06:56:59.452Z,4.10
2022-09-07T06:59:26.069Z,4.10
2022-09-07T07:01:52.693Z,4.13
2022-09-07T07:04:19.328Z,3.70
2022-09-07T07:06:45.953Z,4.30
2022-09-07T07:09:14.100Z,3.83
2022-09-07T07:11:43.569Z,4.00
2022-09-07T07:14:17.705Z,3.30
2022-09-07T07:16:44.785Z,3.13
2022-09-07T07:19:11.475Z,3.63
2022-09-07T07:22:03.555Z,3.58
2022-09-07T07:24:24.946Z,3.20
2022-09-07T07:26:51.652Z,3.40
2022-09-07T07:29:19.040Z,3.30
2022-09-07T07:31:47.203Z,3.30
2022-09-07T07:34:14.811Z,3.00
2022-09-07T07:36:41.466Z,3.15
2022-09-07T07:39:08.498Z,3.60
2022-09-07T07:41:56.565Z,3.33
2022-09-07T07:44:25.570Z,3.22
2022-09-07T07:46:52.404Z,3.30
2022-09-07T07:49:19.248Z,3.65
2022-09-07T07:54:36.847Z,3.05
2022-09-07T07:57:05.357Z,3.05
2022-09-07T07:59:32.021Z,3.35
2022-09-07T08:02:04.448Z,3.20
2022-09-07T08:06:58.857Z,3.30
2022-09-07T08:09:26.117Z,3.40
2022-09-07T08:11:53.282Z,3.60
2022-09-07T08:14:19.876Z,3.65
2022-09-07T08:16:46.665Z,3.08
2022-09-07T08:19:13.442Z,3.20
2022-09-07T08:21:40.072Z,3.60
2022-09-07T08:24:07.127Z,3.10
2022-09-07T08:26:33.722Z,3.50
2022-09-07T08:29:00.328Z,3.58
2022-09-07T08:31:27.267Z,3.22
2022-09-07T08:33:53.929Z,3.13
2022-09-07T08:36:21.497Z,3.00
2022-09-07T08:38:48.329Z,3.30
2022-09-07T08:41:26.788Z,3.40
2022-09-07T08:44:00.130Z,3.30
2022-09-07T08:46:29.922Z,3.42
2022-09-07T08:48:59.966Z,3.25
2022-09-07T08:51:45.481Z,3.00
2022-09-07T08:54:14.994Z,3.30
2022-09-07T09:00:08.098Z,3.08
2022-09-07T09:02:42.537Z,2.90
2022-09-07T09:05:36.159Z,2.95
2022-09-07T09:08:21.018Z,2.90
2022-09-07T09:11:20.744Z,3.15
2022-09-07T09:14:04.786Z,2.90
2022-09-07T09:16:42.955Z,2.80
2022-09-07T09:19:19.364Z,3.15
2022-09-07T09:21:46.280Z,3.08
2022-09-07T09:24:19.353Z,2.83
2022-09-07T09:29:20.841Z,2.90
2022-09-07T09:31:48.116Z,2.50
2022-09-07T09:34:23.784Z,2.53
2022-09-07T09:36:55.197Z,2.45
2022-09-07T09:39:36.753Z,2.85
2022-09-07T09:42:17.097Z,3.08
2022-09-07T09:44:44.693Z,3.03
2022-09-07T09:47:38.656Z,2.90
2022-09-07T09:52:29.184Z,3.05
2022-09-07T09:53:06.274Z,2.70
2022-09-07T09:55:36.542Z,2.67
2022-09-07T10:01:24.062Z,2.80
2022-09-07T10:06:20.865Z,2.35
2022-09-07T10:09:02.005Z,2.70
2022-09-07T10:14:37.249Z,2.80
2022-09-07T10:17:33.648Z,2.28
2022-09-07T10:20:02.597Z,2.40
2022-09-07T10:22:38.518Z,2.70
2022-09-07T10:25:41.308Z,2.03
2022-09-07T10:28:11.448Z,1.90
2022-09-07T10:30:47.175Z,1.80
2022-09-07T10:33:40.245Z,1.58
2022-09-07T10:38:40.332Z,2.03
2022-09-07T10:41:09.822Z,1.42
2022-09-07T10:43:45.354Z,2.22
2022-09-07T10:49:37.511Z,2.15
2022-09-07T10:52:23.078Z,2.10
2022-09-07T10:55:08.276Z,2.00
2022-09-07T10:57:46.908Z,2.00
2022-09-07T11:00:21.149Z,2.30
2022-09-07T11:06:02.618Z,2.13
2022-09-07T11:14:31.382Z,1.80
2022-09-07T11:17:03.416Z,2.25
2022-09-07T11:19:55.191Z,2.08
2022-09-07T11:22:35.219Z,2.20
2022-09-07T11:28:07.344Z,1.80
2022-09-07T11:30:40.897Z,1.90
2022-09-07T11:33:17.390Z,1.75
2022-09-07T11:36:14.573Z,1.88
2022-09-07T11:39:01.263Z,1.60
2022-09-07T11:41:30.908Z,1.88
2022-09-07T11:44:04.793Z,1.77
2022-09-07T11:46:45.768Z,2.03
2022-09-07T11:49:23.718Z,1.80
2022-09-07T11:51:56.449Z,1.65
2022-09-07T11:54:51.570Z,1.50
2022-09-07T11:57:30.301Z,1.65
2022-09-07T12:00:11.107Z,1.75
2022-09-07T12:03:00.950Z,1.60
2022-09-07T12:06:06.751Z,1.60
2022-09-07T12:08:51.317Z,1.58
2022-09-07T12:12:09.201Z,1.85
2022-09-07T12:15:13.006Z,1.77
2022-09-07T12:18:03.728Z,1.73
2022-09-07T12:20:45.534Z,1.60
2022-09-07T12:23:17.810Z,1.80
2022-09-07T12:25:46.837Z,2.47
2022-09-07T12:28:21.904Z,1.60
2022-09-07T12:30:56.171Z,1.90
2022-09-07T12:33:26.259Z,1.73
2022-09-07T12:35:55.111Z,2.00
2022-09-07T12:38:31.155Z,1.70
2022-09-07T12:40:59.885Z,1.58
2022-09-07T12:43:35.557Z,1.92
2022-09-07T12:46:03.116Z,1.70
2022-09-07T12:48:49.922Z,1.90
2022-09-07T12:54:23.835Z,1.70
2022-09-07T12:59:53.361Z,1.58
2022-09-07T13:02:48.074Z,1.60
2022-09-07T13:05:37.393Z,1.70
2022-09-07T13:08:25.634Z,1.60
2022-09-07T13:10:52.534Z,1.20
2022-09-07T13:16:11.584Z,1.38
2022-09-07T13:18:41.542Z,1.40
2022-09-07T13:21:12.055Z,1.40
2022-09-07T13:23:40.002Z,1.88
2022-09-07T13:26:09.482Z,1.42
2022-09-07T13:28:56.205Z,1.05
2022-09-07T13:31:43.379Z,1.10
2022-09-07T13:34:34.545Z,1.35
2022-09-07T13:37:03.886Z,1.23
2022-09-07T13:39:39.062Z,1.23
2022-09-07T13:42:06.574Z,1.35
2022-09-07T13:44:34.725Z,1.30
2022-09-07T13:47:21.066Z,1.25
2022-09-07T13:50:15.099Z,1.60
2022-09-07T13:53:01.756Z,0.88
2022-09-07T13:55:46.354Z,1.23
2022-09-07T13:58:22.272Z,1.13
2022-09-07T14:00:54.993Z,1.08
2022-09-07T14:03:24.349Z,1.30
2022-09-07T14:06:27.398Z,1.38
2022-09-07T14:11:46.519Z,1.10
2022-09-07T14:14:24.751Z,1.30
2022-09-07T14:17:00.302Z,1.13
2022-09-07T14:19:40.738Z,1.20
2022-09-07T14:22:15.210Z,1.30
2022-09-07T14:24:48.590Z,1.30
2022-09-07T14:27:25.586Z,1.10
2022-09-07T14:29:52.785Z,1.40
2022-09-07T14:32:24.519Z,1.20
2022-09-07T14:34:52.258Z,1.37
2022-09-07T14:37:22.022Z,1.30
2022-09-07T14:39:50.142Z,1.20
2022-09-07T14:42:22.865Z,1.75
2022-09-07T14:44:50.278Z,1.40
2022-09-07T14:47:32.995Z,1.30
2022-09-07T14:52:43.729Z,1.65
2022-09-07T14:55:35.110Z,1.55
2022-09-07T14:58:22.834Z,1.42
2022-09-07T15:04:02.303Z,1.38
2022-09-07T15:09:36.162Z,1.40
2022-09-07T15:12:36.483Z,1.58
2022-09-07T15:15:26.923Z,1.67
2022-09-07T15:17:55.892Z,1.60
2022-09-07T15:20:46.102Z,1.88
2022-09-07T15:23:17.669Z,1.90
2022-09-07T15:25:50.937Z,1.33
2022-09-07T15:34:10.365Z,1.55
2022-09-07T15:36:40.769Z,1.50
2022-09-07T15:39:14.938Z,1.67
2022-09-07T15:41:42.802Z,1.60
2022-09-07T15:44:09.454Z,1.48
2022-09-07T15:46:37.172Z,1.40
2022-09-07T15:49:04.289Z,1.58
2022-09-07T15:54:17.777Z,1.42
2022-09-07T15:57:48.422Z,1.83
2022-09-07T15:59:31.311Z,1.52
2022-09-07T16:01:58.624Z,1.95
2022-09-07T16:04:25.515Z,1.70
2022-09-07T16:06:52.267Z,1.75
2022-09-07T16:09:21.688Z,1.80
2022-09-07T16:11:50.110Z,1.80
2022-09-07T16:14:18.925Z,1.90
2022-09-07T16:19:34.910Z,1.63
2022-09-07T16:22:02.210Z,1.80
2022-09-07T16:24:29.070Z,1.65
2022-09-07T16:26:55.676Z,1.70
2022-09-07T16:29:22.288Z,1.70
2022-09-07T16:34:35.806Z,1.60
2022-09-07T16:37:02.574Z,1.92
2022-09-07T16:39:29.445Z,1.45
2022-09-07T16:41:56.269Z,1.70
2022-09-07T16:44:23.014Z,1.85
2022-09-07T16:46:50.631Z,1.67
2022-09-07T16:49:17.823Z,1.83
2022-09-07T16:51:45.835Z,1.65
2022-09-07T16:54:14.382Z,1.80
2022-09-07T16:56:40.983Z,1.73
2022-09-07T16:59:11.690Z,1.75
2022-09-07T17:01:38.472Z,1.55
2022-09-07T17:04:10.443Z,1.60
2022-09-07T17:06:37.728Z,1.70
2022-09-07T17:09:04.934Z,1.75
2022-09-07T17:11:33.828Z,1.60
2022-09-07T17:14:01.272Z,1.80
2022-09-07T17:16:35.467Z,1.67
2022-09-07T17:21:53.752Z,1.90
2022-09-07T17:24:21.275Z,1.80
2022-09-07T17:26:48.294Z,1.60
2022-09-07T17:29:14.968Z,1.80
2022-09-07T17:34:30.563Z,1.77
2022-09-07T17:36:57.430Z,1.95
2022-09-07T17:39:24.055Z,1.75
2022-09-07T17:41:54.531Z,1.67
2022-09-07T17:44:23.399Z,1.90
2022-09-07T17:46:50.537Z,1.92
2022-09-07T17:49:17.915Z,1.85
2022-09-07T17:51:45.818Z,2.00
2022-09-07T17:54:17.890Z,2.22
2022-09-07T17:56:45.545Z,2.00
2022-09-07T18:01:59.731Z,2.10
2022-09-07T18:04:26.458Z,2.22
2022-09-07T18:06:54.298Z,2.90
2022-09-07T18:09:21.890Z,2.38
2022-09-07T18:11:49.905Z,2.25
2022-09-07T18:14:18.068Z,2.00
2022-09-07T18:16:46.361Z,2.42
2022-09-07T18:19:13.597Z,2.30
2022-09-07T18:21:42.722Z,2.85
2022-09-07T18:24:20.208Z,2.97
2022-09-07T18:26:50.949Z,3.00
2022-09-07T18:29:36.849Z,2.90
2022-09-07T18:32:08.290Z,2.30
2022-09-07T18:34:36.424Z,2.33
2022-09-07T18:37:03.337Z,2.75
2022-09-07T18:39:30.060Z,2.70
2022-09-07T18:41:56.901Z,2.60
2022-09-07T18:47:21.173Z,2.78
2022-09-07T18:49:50.061Z,2.60
2022-09-07T18:55:04.851Z,2.22
2022-09-07T18:57:31.445Z,2.60
2022-09-07T18:59:58.014Z,2.67
2022-09-07T19:02:24.807Z,2.63
2022-09-07T19:07:38.125Z,2.53
2022-09-07T19:10:06.837Z,2.10
2022-09-07T19:12:33.646Z,2.50
2022-09-07T19:15:00.262Z,2.15
2022-09-07T19:17:26.957Z,2.35
2022-09-07T19:19:53.614Z,2.40
2022-09-07T19:22:20.286Z,2.30
2022-09-07T19:24:47.002Z,2.40
2022-09-07T19:27:13.629Z,2.63
2022-09-07T19:29:40.206Z,2.75
2022-09-07T19:32:07.791Z,2.85
2022-09-07T19:34:43.404Z,3.60
2022-09-07T19:37:12.155Z,2.58
2022-09-07T19:39:39.053Z,2.50
2022-09-07T19:42:06.760Z,2.45
2022-09-07T19:44:33.873Z,2.17
2022-09-07T19:47:01.014Z,2.50
2022-09-07T19:49:28.681Z,2.30
2022-09-07T19:51:55.531Z,2.55
2022-09-07T19:54:22.195Z,2.50
2022-09-07T19:56:48.808Z,2.35
2022-09-07T19:59:15.597Z,2.38
2022-09-07T20:01:46.297Z,2.50
2022-09-07T20:04:20.285Z,2.40
2022-09-07T20:06:49.969Z,2.20
2022-09-07T20:09:18.537Z,2.50
2022-09-07T20:11:47.562Z,3.50
2022-09-07T20:14:19.188Z,5.00
2022-09-07T20:16:45.929Z,3.53
2022-09-07T20:19:16.414Z,2.70
2022-09-07T20:21:43.216Z,2.75
2022-09-07T20:24:14.471Z,2.65
2022-09-07T20:26:41.189Z,2.60
2022-09-07T20:31:55.265Z,2.60
2022-09-07T20:34:21.950Z,2.60
2022-09-07T20:36:52.386Z,2.63
2022-09-07T20:39:20.400Z,2.40
2022-09-07T20:41:47.655Z,2.40
2022-09-07T20:44:14.938Z,2.58
2022-09-07T20:46:41.934Z,2.33
2022-09-07T20:49:09.594Z,2.70
2022-09-07T20:51:36.193Z,2.53
2022-09-07T20:54:02.912Z,2.70
2022-09-07T20:56:29.810Z,2.75
2022-09-07T20:59:00.195Z,2.40
2022-09-07T21:01:28.281Z,2.38
2022-09-07T21:03:57.307Z,2.70
2022-09-07T21:06:25.440Z,3.80
2022-09-07T21:08:52.517Z,4.60
2022-09-07T21:11:23.769Z,2.95
2022-09-07T21:14:00.601Z,2.83
2022-09-07T21:16:27.964Z,2.85
2022-09-07T21:18:57.236Z,2.85
2022-09-07T21:21:25.033Z,2.60
2022-09-07T21:23:59.764Z,2.53
2022-09-07T21:26:28.288Z,3.03
2022-09-07T21:29:00.234Z,2.45
2022-09-07T21:31:28.334Z,2.75
2022-09-07T21:33:56.657Z,3.55
2022-09-07T21:36:23.785Z,3.20
2022-09-07T21:38:51.022Z,3.45
2022-09-07T21:41:19.451Z,2.58
2022-09-07T21:43:46.694Z,2.75
2022-09-07T21:46:16.760Z,3.00
2022-09-07T21:48:45.017Z,2.97
2022-09-07T21:51:13.144Z,2.70
2022-09-07T21:53:40.276Z,2.90
2022-09-07T21:56:10.133Z,3.15
2022-09-07T21:58:37.190Z,3.35
2022-09-07T22:01:17.896Z,3.38
2022-09-07T22:03:47.311Z,2.75
2022-09-07T22:06:14.845Z,3.22
2022-09-07T22:08:42.535Z,2.40
2022-09-07T22:11:14.825Z,2.95
2022-09-07T22:13:42.190Z,3.03
2022-09-07T22:16:09.065Z,2.25
2022-09-07T22:18:37.953Z,2.72
2022-09-07T22:21:05.870Z,3.13
2022-09-07T22:23:34.544Z,2.90
2022-09-07T22:26:01.513Z,2.53
2022-09-07T22:28:31.551Z,2.65
2022-09-07T22:31:29.227Z,2.90
2022-09-07T22:33:56.941Z,3.05
2022-09-07T22:36:46.788Z,2.72
2022-09-07T22:39:16.465Z,2.70
2022-09-07T22:41:44.417Z,2.67
2022-09-07T22:44:16.330Z,2.88
2022-09-07T22:46:44.651Z,2.72
2022-09-07T22:49:13.372Z,3.25
2022-09-07T22:51:40.029Z,2.55
2022-09-07T22:54:06.825Z,2.80
2022-09-07T22:56:34.293Z,2.78
2022-09-07T22:59:03.854Z,3.03
2022-09-07T23:01:31.842Z,2.78
2022-09-07T23:03:59.243Z,2.70
2022-09-07T23:06:34.702Z,2.95
2022-09-07T23:09:08.202Z,2.72
2022-09-07T23:11:35.222Z,2.65
2022-09-07T23:14:04.956Z,2.83
2022-09-07T23:16:31.657Z,2.60
2022-09-07T23:18:59.521Z,2.65
2022-09-07T23:21:27.560Z,2.97
2022-09-07T23:23:57.821Z,3.15
2022-09-07T23:26:26.649Z,2.97
2022-09-07T23:28:55.396Z,3.72
2022-09-07T23:31:22.284Z,3.50
2022-09-07T23:33:49.453Z,3.88
2022-09-07T23:36:17.551Z,3.42
2022-09-07T23:38:48.553Z,3.10
2022-09-07T23:41:19.612Z,3.08
2022-09-07T23:43:46.577Z,3.00
2022-09-07T23:46:14.202Z,3.30
2022-09-07T23:48:43.718Z,3.97
2022-09-07T23:51:10.489Z,4.10
2022-09-07T23:53:37.694Z,4.10
2022-09-07T23:56:04.533Z,4.07
2022-09-07T23:58:31.168Z,4.60
